sensor_id;sensor_type;location;lat;lon;timestamp;temperature;humidity
52849;DHT22;38714;53.180;5.812;2023-07-13T00:02:23;18.20;99.90
52849;DHT22;38714;53.180;5.812;2023-07-13T00:04:49;18.10;99.90
52849;DHT22;38714;53.180;5.812;2023-07-13T00:07:16;18.10;99.90
52849;DHT22;38714;53.180;5.812;2023-07-13T00:09:48;18.10;99.90
52849;DHT22;38714;53.180;5.812;2023-07-13T00:12:36;18.10;99.90
52849;DHT22;38714;53.180;5.812;2023-07-13T00:15:06;18.10;99.90
52849;DHT22;38714;53.180;5.812;2023-07-13T00:17:32;18.00;99.90
52849;DHT22;38714;53.180;5.812;2023-07-13T00:19:58;18.00;99.90
52849;DHT22;38714;53.180;5.812;2023-07-13T00:22:24;18.00;99.90
52849;DHT22;38714;53.180;5.812;2023-07-13T00:24:54;18.00;99.90
52849;DHT22;38714;53.180;5.812;2023-07-13T00:27:23;18.00;99.90
52849;DHT22;38714;53.180;5.812;2023-07-13T00:29:49;18.00;99.90
52849;DHT22;38714;53.180;5.812;2023-07-13T00:32:15;17.90;99.90
52849;DHT22;38714;53.180;5.812;2023-07-13T00:34:40;17.90;99.90
52849;DHT22;38714;53.180;5.812;2023-07-13T00:37:07;17.90;99.90
52849;DHT22;38714;53.180;5.812;2023-07-13T00:39:33;17.80;99.90
52849;DHT22;38714;53.180;5.812;2023-07-13T00:42:00;17.80;99.90
52849;DHT22;38714;53.180;5.812;2023-07-13T00:44:26;17.80;99.90
52849;DHT22;38714;53.180;5.812;2023-07-13T00:46:52;17.80;99.90
52849;DHT22;38714;53.180;5.812;2023-07-13T00:49:24;17.80;99.90
52849;DHT22;38714;53.180;5.812;2023-07-13T00:51:55;17.80;99.90
52849;DHT22;38714;53.180;5.812;2023-07-13T00:54:28;17.80;99.90
52849;DHT22;38714;53.180;5.812;2023-07-13T00:56:59;17.80;99.90
52849;DHT22;38714;53.180;5.812;2023-07-13T00:59:26;17.70;99.90
52849;DHT22;38714;53.180;5.812;2023-07-13T01:01:52;17.70;99.90
52849;DHT22;38714;53.180;5.812;2023-07-13T01:04:19;17.70;99.90
52849;DHT22;38714;53.180;5.812;2023-07-13T01:06:45;17.70;99.90
52849;DHT22;38714;53.180;5.812;2023-07-13T01:09:14;17.70;99.90
52849;DHT22;38714;53.180;5.812;2023-07-13T01:11:41;17.70;99.90
52849;DHT22;38714;53.180;5.812;2023-07-13T01:14:08;17.70;99.90
52849;DHT22;38714;53.180;5.812;2023-07-13T01:16:35;17.60;99.90
52849;DHT22;38714;53.180;5.812;2023-07-13T01:19:03;17.60;99.90
52849;DHT22;38714;53.180;5.812;2023-07-13T01:21:33;17.60;99.90
52849;DHT22;38714;53.180;5.812;2023-07-13T01:23:58;17.60;99.90
52849;DHT22;38714;53.180;5.812;2023-07-13T01:26:24;17.60;99.90
52849;DHT22;38714;53.180;5.812;2023-07-13T01:28:50;17.50;99.90
52849;DHT22;38714;53.180;5.812;2023-07-13T01:31:16;17.50;99.90
52849;DHT22;38714;53.180;5.812;2023-07-13T01:33:42;17.50;99.90
52849;DHT22;38714;53.180;5.812;2023-07-13T01:36:08;17.50;99.90
52849;DHT22;38714;53.180;5.812;2023-07-13T01:38:34;17.50;99.90
52849;DHT22;38714;53.180;5.812;2023-07-13T01:41:01;17.50;99.90
52849;DHT22;38714;53.180;5.812;2023-07-13T01:43:26;17.50;99.90
52849;DHT22;38714;53.180;5.812;2023-07-13T01:45:52;17.50;99.90
52849;DHT22;38714;53.180;5.812;2023-07-13T01:48:18;17.40;99.90
52849;DHT22;38714;53.180;5.812;2023-07-13T01:50:44;17.40;99.90
52849;DHT22;38714;53.180;5.812;2023-07-13T01:53:10;17.40;99.90
52849;DHT22;38714;53.180;5.812;2023-07-13T01:55:36;17.40;99.90
52849;DHT22;38714;53.180;5.812;2023-07-13T01:58:03;17.40;99.90
52849;DHT22;38714;53.180;5.812;2023-07-13T02:00:29;17.40;99.90
52849;DHT22;38714;53.180;5.812;2023-07-13T02:02:54;17.30;99.90
52849;DHT22;38714;53.180;5.812;2023-07-13T02:05:20;17.40;99.90
52849;DHT22;38714;53.180;5.812;2023-07-13T02:07:46;17.40;99.90
52849;DHT22;38714;53.180;5.812;2023-07-13T02:10:12;17.40;99.90
52849;DHT22;38714;53.180;5.812;2023-07-13T02:12:38;17.30;99.90
52849;DHT22;38714;53.180;5.812;2023-07-13T02:15:04;17.30;99.90
52849;DHT22;38714;53.180;5.812;2023-07-13T02:17:30;17.40;99.90
52849;DHT22;38714;53.180;5.812;2023-07-13T02:19:56;17.30;99.90
52849;DHT22;38714;53.180;5.812;2023-07-13T02:22:22;17.30;99.90
52849;DHT22;38714;53.180;5.812;2023-07-13T02:24:48;17.30;99.90
52849;DHT22;38714;53.180;5.812;2023-07-13T02:27:14;17.30;99.90
52849;DHT22;38714;53.180;5.812;2023-07-13T02:29:39;17.30;99.90
52849;DHT22;38714;53.180;5.812;2023-07-13T02:32:05;17.30;99.90
52849;DHT22;38714;53.180;5.812;2023-07-13T02:34:31;17.30;99.90
52849;DHT22;38714;53.180;5.812;2023-07-13T02:36:57;17.30;99.90
52849;DHT22;38714;53.180;5.812;2023-07-13T02:39:23;17.20;99.90
52849;DHT22;38714;53.180;5.812;2023-07-13T02:41:49;17.30;99.90
52849;DHT22;38714;53.180;5.812;2023-07-13T02:44:14;17.20;99.90
52849;DHT22;38714;53.180;5.812;2023-07-13T02:46:40;17.20;99.90
52849;DHT22;38714;53.180;5.812;2023-07-13T02:49:06;17.20;99.90
52849;DHT22;38714;53.180;5.812;2023-07-13T02:51:32;17.10;99.90
52849;DHT22;38714;53.180;5.812;2023-07-13T02:54:00;17.10;99.90
52849;DHT22;38714;53.180;5.812;2023-07-13T02:56:29;17.10;99.90
52849;DHT22;38714;53.180;5.812;2023-07-13T02:58:55;17.10;99.90
52849;DHT22;38714;53.180;5.812;2023-07-13T03:01:20;17.10;99.90
52849;DHT22;38714;53.180;5.812;2023-07-13T03:03:47;17.10;99.90
52849;DHT22;38714;53.180;5.812;2023-07-13T03:06:13;17.00;99.90
52849;DHT22;38714;53.180;5.812;2023-07-13T03:08:39;17.00;99.90
52849;DHT22;38714;53.180;5.812;2023-07-13T03:11:17;17.00;99.90
52849;DHT22;38714;53.180;5.812;2023-07-13T03:13:43;17.00;99.90
52849;DHT22;38714;53.180;5.812;2023-07-13T03:16:09;16.90;99.90
52849;DHT22;38714;53.180;5.812;2023-07-13T03:18:36;16.90;99.90
52849;DHT22;38714;53.180;5.812;2023-07-13T03:21:02;16.90;99.90
52849;DHT22;38714;53.180;5.812;2023-07-13T03:23:29;16.90;99.90
52849;DHT22;38714;53.180;5.812;2023-07-13T03:26:04;16.90;99.90
52849;DHT22;38714;53.180;5.812;2023-07-13T03:28:31;16.90;99.90
52849;DHT22;38714;53.180;5.812;2023-07-13T03:31:04;16.90;99.90
52849;DHT22;38714;53.180;5.812;2023-07-13T03:33:30;16.90;99.90
52849;DHT22;38714;53.180;5.812;2023-07-13T03:35:56;16.80;99.90
52849;DHT22;38714;53.180;5.812;2023-07-13T03:38:22;16.80;99.90
52849;DHT22;38714;53.180;5.812;2023-07-13T03:40:48;16.80;99.90
52849;DHT22;38714;53.180;5.812;2023-07-13T03:43:14;16.80;99.90
52849;DHT22;38714;53.180;5.812;2023-07-13T03:45:40;16.80;99.90
52849;DHT22;38714;53.180;5.812;2023-07-13T03:48:06;16.70;99.90
52849;DHT22;38714;53.180;5.812;2023-07-13T03:50:32;16.70;99.90
52849;DHT22;38714;53.180;5.812;2023-07-13T03:52:58;16.70;99.90
52849;DHT22;38714;53.180;5.812;2023-07-13T03:55:24;16.70;99.90
52849;DHT22;38714;53.180;5.812;2023-07-13T03:57:58;16.70;99.90
52849;DHT22;38714;53.180;5.812;2023-07-13T04:00:24;16.70;99.90
52849;DHT22;38714;53.180;5.812;2023-07-13T04:02:50;16.70;99.90
52849;DHT22;38714;53.180;5.812;2023-07-13T04:05:16;16.70;99.90
52849;DHT22;38714;53.180;5.812;2023-07-13T04:07:42;16.70;99.90
52849;DHT22;38714;53.180;5.812;2023-07-13T04:10:08;16.70;99.90
52849;DHT22;38714;53.180;5.812;2023-07-13T04:12:34;16.70;99.90
52849;DHT22;38714;53.180;5.812;2023-07-13T04:14:59;16.70;99.90
52849;DHT22;38714;53.180;5.812;2023-07-13T04:17:25;16.70;99.90
52849;DHT22;38714;53.180;5.812;2023-07-13T04:19:51;16.70;99.90
52849;DHT22;38714;53.180;5.812;2023-07-13T04:22:16;16.70;99.90
52849;DHT22;38714;53.180;5.812;2023-07-13T04:24:42;16.70;99.90
52849;DHT22;38714;53.180;5.812;2023-07-13T04:27:08;16.70;99.90
52849;DHT22;38714;53.180;5.812;2023-07-13T04:29:34;16.70;99.90
52849;DHT22;38714;53.180;5.812;2023-07-13T04:31:59;16.70;99.90
52849;DHT22;38714;53.180;5.812;2023-07-13T04:34:25;16.70;99.90
52849;DHT22;38714;53.180;5.812;2023-07-13T04:36:51;16.70;99.90
52849;DHT22;38714;53.180;5.812;2023-07-13T04:39:17;16.70;99.90
52849;DHT22;38714;53.180;5.812;2023-07-13T04:41:43;16.70;99.90
52849;DHT22;38714;53.180;5.812;2023-07-13T04:44:09;16.70;99.90
52849;DHT22;38714;53.180;5.812;2023-07-13T04:46:34;16.70;99.90
52849;DHT22;38714;53.180;5.812;2023-07-13T04:49:00;16.80;99.90
52849;DHT22;38714;53.180;5.812;2023-07-13T04:51:26;16.80;99.90
52849;DHT22;38714;53.180;5.812;2023-07-13T04:53:52;16.80;99.90
52849;DHT22;38714;53.180;5.812;2023-07-13T04:56:18;16.80;99.90
52849;DHT22;38714;53.180;5.812;2023-07-13T04:58:45;16.80;99.90
52849;DHT22;38714;53.180;5.812;2023-07-13T05:01:11;16.80;99.90
52849;DHT22;38714;53.180;5.812;2023-07-13T05:03:36;16.80;99.90
52849;DHT22;38714;53.180;5.812;2023-07-13T05:06:07;16.90;99.90
52849;DHT22;38714;53.180;5.812;2023-07-13T05:08:35;16.90;99.90
52849;DHT22;38714;53.180;5.812;2023-07-13T05:11:01;16.90;99.90
52849;DHT22;38714;53.180;5.812;2023-07-13T05:13:27;16.90;99.90
52849;DHT22;38714;53.180;5.812;2023-07-13T05:16:01;16.90;99.90
52849;DHT22;38714;53.180;5.812;2023-07-13T05:18:28;17.00;99.90
52849;DHT22;38714;53.180;5.812;2023-07-13T05:20:58;17.00;99.90
52849;DHT22;38714;53.180;5.812;2023-07-13T05:23:24;17.00;99.90
52849;DHT22;38714;53.180;5.812;2023-07-13T05:25:50;17.00;99.90
52849;DHT22;38714;53.180;5.812;2023-07-13T05:28:15;17.10;99.90
52849;DHT22;38714;53.180;5.812;2023-07-13T05:30:46;17.10;99.90
52849;DHT22;38714;53.180;5.812;2023-07-13T05:33:12;17.10;99.90
52849;DHT22;38714;53.180;5.812;2023-07-13T05:35:38;17.10;99.90
52849;DHT22;38714;53.180;5.812;2023-07-13T05:38:04;17.20;99.90
52849;DHT22;38714;53.180;5.812;2023-07-13T05:40:29;17.20;99.90
52849;DHT22;38714;53.180;5.812;2023-07-13T05:42:55;17.30;99.90
52849;DHT22;38714;53.180;5.812;2023-07-13T05:45:21;17.30;99.90
52849;DHT22;38714;53.180;5.812;2023-07-13T05:47:46;17.30;99.90
52849;DHT22;38714;53.180;5.812;2023-07-13T05:50:12;17.30;99.90
52849;DHT22;38714;53.180;5.812;2023-07-13T05:52:38;17.30;99.90
52849;DHT22;38714;53.180;5.812;2023-07-13T05:55:04;17.30;99.90
52849;DHT22;38714;53.180;5.812;2023-07-13T05:57:30;17.40;99.90
52849;DHT22;38714;53.180;5.812;2023-07-13T05:59:56;17.40;99.90
52849;DHT22;38714;53.180;5.812;2023-07-13T06:02:21;17.40;99.90
52849;DHT22;38714;53.180;5.812;2023-07-13T06:04:47;17.50;99.90
52849;DHT22;38714;53.180;5.812;2023-07-13T06:07:13;17.50;99.90
52849;DHT22;38714;53.180;5.812;2023-07-13T06:09:38;17.50;99.90
52849;DHT22;38714;53.180;5.812;2023-07-13T06:12:05;17.60;99.90
52849;DHT22;38714;53.180;5.812;2023-07-13T06:14:30;17.60;99.90
52849;DHT22;38714;53.180;5.812;2023-07-13T06:16:56;17.60;99.90
52849;DHT22;38714;53.180;5.812;2023-07-13T06:19:21;17.70;99.90
52849;DHT22;38714;53.180;5.812;2023-07-13T06:21:47;17.70;99.90
52849;DHT22;38714;53.180;5.812;2023-07-13T06:24:13;17.70;99.90
52849;DHT22;38714;53.180;5.812;2023-07-13T06:26:39;17.70;99.90
52849;DHT22;38714;53.180;5.812;2023-07-13T06:29:04;17.80;99.90
52849;DHT22;38714;53.180;5.812;2023-07-13T06:31:31;17.80;99.90
52849;DHT22;38714;53.180;5.812;2023-07-13T06:33:56;17.80;99.90
52849;DHT22;38714;53.180;5.812;2023-07-13T06:36:22;17.90;99.90
52849;DHT22;38714;53.180;5.812;2023-07-13T06:38:48;17.90;99.90
52849;DHT22;38714;53.180;5.812;2023-07-13T06:41:14;17.90;99.90
52849;DHT22;38714;53.180;5.812;2023-07-13T06:43:39;17.90;99.90
52849;DHT22;38714;53.180;5.812;2023-07-13T06:46:05;18.00;99.90
52849;DHT22;38714;53.180;5.812;2023-07-13T06:48:31;17.90;99.90
52849;DHT22;38714;53.180;5.812;2023-07-13T06:50:56;18.00;99.90
52849;DHT22;38714;53.180;5.812;2023-07-13T06:53:22;18.00;99.90
52849;DHT22;38714;53.180;5.812;2023-07-13T06:55:48;18.00;99.90
52849;DHT22;38714;53.180;5.812;2023-07-13T06:58:16;18.10;99.90
52849;DHT22;38714;53.180;5.812;2023-07-13T07:00:42;18.00;99.90
52849;DHT22;38714;53.180;5.812;2023-07-13T07:03:08;18.00;99.90
52849;DHT22;38714;53.180;5.812;2023-07-13T07:05:34;18.00;99.90
52849;DHT22;38714;53.180;5.812;2023-07-13T07:08:00;18.00;99.90
52849;DHT22;38714;53.180;5.812;2023-07-13T07:10:30;18.00;99.90
52849;DHT22;38714;53.180;5.812;2023-07-13T07:12:57;18.00;99.90
52849;DHT22;38714;53.180;5.812;2023-07-13T07:15:23;18.10;99.90
52849;DHT22;38714;53.180;5.812;2023-07-13T07:17:48;18.10;99.90
52849;DHT22;38714;53.180;5.812;2023-07-13T07:20:14;18.20;99.90
52849;DHT22;38714;53.180;5.812;2023-07-13T07:22:40;18.20;99.90
52849;DHT22;38714;53.180;5.812;2023-07-13T07:25:05;18.30;99.90
52849;DHT22;38714;53.180;5.812;2023-07-13T07:27:32;18.40;99.90
52849;DHT22;38714;53.180;5.812;2023-07-13T07:29:58;18.40;99.90
52849;DHT22;38714;53.180;5.812;2023-07-13T07:32:24;18.50;99.90
52849;DHT22;38714;53.180;5.812;2023-07-13T07:34:50;18.60;99.90
52849;DHT22;38714;53.180;5.812;2023-07-13T07:37:15;18.60;99.90
52849;DHT22;38714;53.180;5.812;2023-07-13T07:39:43;18.60;99.90
52849;DHT22;38714;53.180;5.812;2023-07-13T07:42:08;18.60;99.90
52849;DHT22;38714;53.180;5.812;2023-07-13T07:44:34;18.60;99.90
52849;DHT22;38714;53.180;5.812;2023-07-13T07:47:00;18.60;99.90
52849;DHT22;38714;53.180;5.812;2023-07-13T07:49:26;18.60;99.90
52849;DHT22;38714;53.180;5.812;2023-07-13T07:51:52;18.60;99.90
52849;DHT22;38714;53.180;5.812;2023-07-13T07:54:18;18.60;99.90
52849;DHT22;38714;53.180;5.812;2023-07-13T07:56:44;18.60;99.90
52849;DHT22;38714;53.180;5.812;2023-07-13T07:59:09;18.60;99.90
52849;DHT22;38714;53.180;5.812;2023-07-13T08:01:36;18.60;99.90
52849;DHT22;38714;53.180;5.812;2023-07-13T08:04:02;18.70;99.90
52849;DHT22;38714;53.180;5.812;2023-07-13T08:06:28;18.80;99.90
52849;DHT22;38714;53.180;5.812;2023-07-13T08:08:54;18.80;99.90
52849;DHT22;38714;53.180;5.812;2023-07-13T08:11:21;18.80;99.90
52849;DHT22;38714;53.180;5.812;2023-07-13T08:13:47;18.90;99.90
52849;DHT22;38714;53.180;5.812;2023-07-13T08:16:13;19.00;99.90
52849;DHT22;38714;53.180;5.812;2023-07-13T08:18:39;19.00;99.90
52849;DHT22;38714;53.180;5.812;2023-07-13T08:21:05;19.00;99.90
52849;DHT22;38714;53.180;5.812;2023-07-13T08:23:31;19.10;99.90
52849;DHT22;38714;53.180;5.812;2023-07-13T08:25:57;19.10;99.90
52849;DHT22;38714;53.180;5.812;2023-07-13T08:28:23;19.20;99.90
52849;DHT22;38714;53.180;5.812;2023-07-13T08:30:49;19.20;99.90
52849;DHT22;38714;53.180;5.812;2023-07-13T08:33:17;19.20;99.90
52849;DHT22;38714;53.180;5.812;2023-07-13T08:35:48;19.20;99.90
52849;DHT22;38714;53.180;5.812;2023-07-13T08:38:15;19.20;99.90
52849;DHT22;38714;53.180;5.812;2023-07-13T08:40:41;19.10;99.90
52849;DHT22;38714;53.180;5.812;2023-07-13T08:43:17;19.10;99.90
52849;DHT22;38714;53.180;5.812;2023-07-13T08:45:47;19.10;99.90
52849;DHT22;38714;53.180;5.812;2023-07-13T08:48:25;19.20;99.90
52849;DHT22;38714;53.180;5.812;2023-07-13T08:53:23;19.20;99.90
52849;DHT22;38714;53.180;5.812;2023-07-13T08:55:55;19.30;99.90
52849;DHT22;38714;53.180;5.812;2023-07-13T08:58:23;19.30;99.90
52849;DHT22;38714;53.180;5.812;2023-07-13T09:01:19;19.30;99.90
52849;DHT22;38714;53.180;5.812;2023-07-13T09:06:30;19.30;99.90
52849;DHT22;38714;53.180;5.812;2023-07-13T09:09:15;19.30;99.90
52849;DHT22;38714;53.180;5.812;2023-07-13T09:14:48;19.40;99.90
52849;DHT22;38714;53.180;5.812;2023-07-13T09:17:18;19.40;99.90
52849;DHT22;38714;53.180;5.812;2023-07-13T09:19:48;19.30;99.90
52849;DHT22;38714;53.180;5.812;2023-07-13T09:22:18;19.40;99.90
52849;DHT22;38714;53.180;5.812;2023-07-13T09:25:46;19.30;99.90
52849;DHT22;38714;53.180;5.812;2023-07-13T09:27:47;19.40;99.90
52849;DHT22;38714;53.180;5.812;2023-07-13T09:32:41;19.50;99.90
52849;DHT22;38714;53.180;5.812;2023-07-13T09:35:17;19.50;99.90
52849;DHT22;38714;53.180;5.812;2023-07-13T09:37:45;19.50;99.90
52849;DHT22;38714;53.180;5.812;2023-07-13T09:40:22;19.50;99.90
52849;DHT22;38714;53.180;5.812;2023-07-13T09:42:52;19.50;99.90
52849;DHT22;38714;53.180;5.812;2023-07-13T09:45:28;19.60;99.90
52849;DHT22;38714;53.180;5.812;2023-07-13T09:48:07;19.60;99.90
52849;DHT22;38714;53.180;5.812;2023-07-13T09:50:35;19.60;99.90
52849;DHT22;38714;53.180;5.812;2023-07-13T09:53:02;19.60;99.90
52849;DHT22;38714;53.180;5.812;2023-07-13T09:55:32;19.70;99.90
52849;DHT22;38714;53.180;5.812;2023-07-13T10:00:36;19.70;99.90
52849;DHT22;38714;53.180;5.812;2023-07-13T10:03:13;19.80;99.90
52849;DHT22;38714;53.180;5.812;2023-07-13T10:05:43;19.80;99.90
52849;DHT22;38714;53.180;5.812;2023-07-13T10:08:24;19.80;99.90
52849;DHT22;38714;53.180;5.812;2023-07-13T10:10:58;19.90;99.90
52849;DHT22;38714;53.180;5.812;2023-07-13T10:13:31;19.90;99.90
52849;DHT22;38714;53.180;5.812;2023-07-13T10:15:59;20.00;99.90
52849;DHT22;38714;53.180;5.812;2023-07-13T10:18:25;20.10;99.90
52849;DHT22;38714;53.180;5.812;2023-07-13T10:21:09;20.20;99.90
52849;DHT22;38714;53.180;5.812;2023-07-13T10:23:36;20.30;99.90
52849;DHT22;38714;53.180;5.812;2023-07-13T10:26:03;20.40;99.90
52849;DHT22;38714;53.180;5.812;2023-07-13T10:28:33;20.40;99.90
52849;DHT22;38714;53.180;5.812;2023-07-13T10:31:01;20.30;99.90
52849;DHT22;38714;53.180;5.812;2023-07-13T10:33:28;20.30;99.90
52849;DHT22;38714;53.180;5.812;2023-07-13T10:38:38;20.20;99.90
52849;DHT22;38714;53.180;5.812;2023-07-13T10:41:08;20.30;99.90
52849;DHT22;38714;53.180;5.812;2023-07-13T10:43:43;20.20;99.90
52849;DHT22;38714;53.180;5.812;2023-07-13T10:46:17;20.30;99.90
52849;DHT22;38714;53.180;5.812;2023-07-13T10:48:46;20.20;99.90
52849;DHT22;38714;53.180;5.812;2023-07-13T10:51:17;20.30;99.90
52849;DHT22;38714;53.180;5.812;2023-07-13T10:53:43;20.30;99.90
52849;DHT22;38714;53.180;5.812;2023-07-13T10:58:45;20.20;99.90
52849;DHT22;38714;53.180;5.812;2023-07-13T11:01:18;20.30;99.90
52849;DHT22;38714;53.180;5.812;2023-07-13T11:24:29;20.10;99.90
52849;DHT22;38714;53.180;5.812;2023-07-13T11:29:51;20.30;99.90
52849;DHT22;38714;53.180;5.812;2023-07-13T11:32:26;20.30;99.90
52849;DHT22;38714;53.180;5.812;2023-07-13T11:34:55;20.30;99.90
52849;DHT22;38714;53.180;5.812;2023-07-13T11:37:22;20.30;99.90
52849;DHT22;38714;53.180;5.812;2023-07-13T11:39:50;20.40;99.90
52849;DHT22;38714;53.180;5.812;2023-07-13T11:42:18;20.40;99.90
52849;DHT22;38714;53.180;5.812;2023-07-13T11:44:48;20.40;99.90
52849;DHT22;38714;53.180;5.812;2023-07-13T11:47:19;20.40;99.90
52849;DHT22;38714;53.180;5.812;2023-07-13T11:49:52;20.40;99.90
52849;DHT22;38714;53.180;5.812;2023-07-13T11:52:23;20.40;99.90
52849;DHT22;38714;53.180;5.812;2023-07-13T11:54:55;20.30;99.90
52849;DHT22;38714;53.180;5.812;2023-07-13T11:57:28;20.30;99.90
52849;DHT22;38714;53.180;5.812;2023-07-13T11:59:55;20.30;99.90
52849;DHT22;38714;53.180;5.812;2023-07-13T12:02:35;20.30;99.90
52849;DHT22;38714;53.180;5.812;2023-07-13T12:05:03;20.40;99.90
52849;DHT22;38714;53.180;5.812;2023-07-13T12:07:32;20.50;99.90
52849;DHT22;38714;53.180;5.812;2023-07-13T12:10:23;20.50;99.90
52849;DHT22;38714;53.180;5.812;2023-07-13T12:13:03;20.50;99.90
52849;DHT22;38714;53.180;5.812;2023-07-13T12:15:44;20.60;99.90
52849;DHT22;38714;53.180;5.812;2023-07-13T12:18:18;20.60;99.90
52849;DHT22;38714;53.180;5.812;2023-07-13T12:20:45;20.60;99.90
52849;DHT22;38714;53.180;5.812;2023-07-13T12:25:51;20.60;99.90
52849;DHT22;38714;53.180;5.812;2023-07-13T12:28:22;20.60;99.90
52849;DHT22;38714;53.180;5.812;2023-07-13T12:30:49;20.60;99.90
52849;DHT22;38714;53.180;5.812;2023-07-13T12:33:16;20.50;99.90
52849;DHT22;38714;53.180;5.812;2023-07-13T12:35:48;20.60;99.90
52849;DHT22;38714;53.180;5.812;2023-07-13T12:38:16;20.70;99.90
52849;DHT22;38714;53.180;5.812;2023-07-13T12:40:42;20.70;99.90
52849;DHT22;38714;53.180;5.812;2023-07-13T12:43:12;20.70;99.90
52849;DHT22;38714;53.180;5.812;2023-07-13T12:45:39;20.60;99.90
52849;DHT22;38714;53.180;5.812;2023-07-13T12:48:13;20.60;99.90
52849;DHT22;38714;53.180;5.812;2023-07-13T12:50:46;20.50;99.90
52849;DHT22;38714;53.180;5.812;2023-07-13T12:53:18;20.50;99.90
52849;DHT22;38714;53.180;5.812;2023-07-13T12:55:53;20.40;99.90
52849;DHT22;38714;53.180;5.812;2023-07-13T12:58:39;20.30;99.90
52849;DHT22;38714;53.180;5.812;2023-07-13T13:01:11;20.20;99.90
52849;DHT22;38714;53.180;5.812;2023-07-13T13:03:40;20.10;99.90
52849;DHT22;38714;53.180;5.812;2023-07-13T13:08:50;20.00;99.90
52849;DHT22;38714;53.180;5.812;2023-07-13T13:11:17;19.90;99.90
52849;DHT22;38714;53.180;5.812;2023-07-13T13:13:43;19.90;99.90
52849;DHT22;38714;53.180;5.812;2023-07-13T13:17:02;20.00;99.90
52849;DHT22;38714;53.180;5.812;2023-07-13T13:19:24;20.00;99.90
52849;DHT22;38714;53.180;5.812;2023-07-13T13:21:52;20.00;99.90
52849;DHT22;38714;53.180;5.812;2023-07-13T13:24:21;20.10;99.90
52849;DHT22;38714;53.180;5.812;2023-07-13T13:26:47;20.10;99.90
52849;DHT22;38714;53.180;5.812;2023-07-13T13:29:19;20.10;99.90
52849;DHT22;38714;53.180;5.812;2023-07-13T13:31:46;20.20;99.90
52849;DHT22;38714;53.180;5.812;2023-07-13T13:34:15;20.20;99.90
52849;DHT22;38714;53.180;5.812;2023-07-13T13:36:42;20.20;99.90
52849;DHT22;38714;53.180;5.812;2023-07-13T13:39:21;20.20;99.90
52849;DHT22;38714;53.180;5.812;2023-07-13T13:41:49;20.20;99.90
52849;DHT22;38714;53.180;5.812;2023-07-13T13:44:16;20.20;99.90
52849;DHT22;38714;53.180;5.812;2023-07-13T13:46:44;20.20;99.90
52849;DHT22;38714;53.180;5.812;2023-07-13T13:49:31;20.30;99.90
52849;DHT22;38714;53.180;5.812;2023-07-13T13:51:57;20.30;99.90
52849;DHT22;38714;53.180;5.812;2023-07-13T13:54:24;20.40;99.90
52849;DHT22;38714;53.180;5.812;2023-07-13T13:56:52;20.40;99.90
52849;DHT22;38714;53.180;5.812;2023-07-13T13:59:18;20.50;99.90
52849;DHT22;38714;53.180;5.812;2023-07-13T14:01:45;20.40;99.90
52849;DHT22;38714;53.180;5.812;2023-07-13T14:04:18;20.50;99.90
52849;DHT22;38714;53.180;5.812;2023-07-13T14:06:45;20.40;99.90
52849;DHT22;38714;53.180;5.812;2023-07-13T14:09:13;20.30;99.90
52849;DHT22;38714;53.180;5.812;2023-07-13T14:11:39;20.30;99.90
52849;DHT22;38714;53.180;5.812;2023-07-13T14:14:20;20.40;99.90
52849;DHT22;38714;53.180;5.812;2023-07-13T14:16:47;20.40;99.90
52849;DHT22;38714;53.180;5.812;2023-07-13T14:19:19;20.40;99.90
52849;DHT22;38714;53.180;5.812;2023-07-13T14:21:45;20.30;99.90
52849;DHT22;38714;53.180;5.812;2023-07-13T14:24:13;20.20;99.90
52849;DHT22;38714;53.180;5.812;2023-07-13T14:26:40;20.30;99.90
52849;DHT22;38714;53.180;5.812;2023-07-13T14:29:15;20.40;99.90
52849;DHT22;38714;53.180;5.812;2023-07-13T14:31:43;20.40;99.90
52849;DHT22;38714;53.180;5.812;2023-07-13T14:34:11;20.60;99.90
52849;DHT22;38714;53.180;5.812;2023-07-13T14:36:47;20.60;99.90
52849;DHT22;38714;53.180;5.812;2023-07-13T14:39:20;20.70;99.90
52849;DHT22;38714;53.180;5.812;2023-07-13T14:41:53;20.80;99.90
52849;DHT22;38714;53.180;5.812;2023-07-13T14:44:27;20.70;99.90
52849;DHT22;38714;53.180;5.812;2023-07-13T14:46:55;20.70;99.90
52849;DHT22;38714;53.180;5.812;2023-07-13T14:49:32;20.70;99.90
52849;DHT22;38714;53.180;5.812;2023-07-13T14:52:16;20.70;99.90
52849;DHT22;38714;53.180;5.812;2023-07-13T14:54:42;20.70;99.90
52849;DHT22;38714;53.180;5.812;2023-07-13T14:57:13;20.70;99.90
52849;DHT22;38714;53.180;5.812;2023-07-13T14:59:40;20.70;99.90
52849;DHT22;38714;53.180;5.812;2023-07-13T15:02:32;20.70;99.90
52849;DHT22;38714;53.180;5.812;2023-07-13T15:04:59;20.80;99.90
52849;DHT22;38714;53.180;5.812;2023-07-13T15:07:25;20.80;99.90
52849;DHT22;38714;53.180;5.812;2023-07-13T15:09:51;20.80;99.90
52849;DHT22;38714;53.180;5.812;2023-07-13T15:12:18;20.80;99.90
52849;DHT22;38714;53.180;5.812;2023-07-13T15:14:44;20.90;99.90
52849;DHT22;38714;53.180;5.812;2023-07-13T15:17:33;20.90;99.90
52849;DHT22;38714;53.180;5.812;2023-07-13T15:20:06;20.90;99.90
52849;DHT22;38714;53.180;5.812;2023-07-13T15:22:37;20.90;99.90
52849;DHT22;38714;53.180;5.812;2023-07-13T15:25:02;20.90;99.90
52849;DHT22;38714;53.180;5.812;2023-07-13T15:27:29;21.00;99.90
52849;DHT22;38714;53.180;5.812;2023-07-13T15:29:54;21.00;99.90
52849;DHT22;38714;53.180;5.812;2023-07-13T15:32:20;21.00;99.90
52849;DHT22;38714;53.180;5.812;2023-07-13T15:34:47;21.00;99.90
52849;DHT22;38714;53.180;5.812;2023-07-13T15:37:16;21.00;99.90
52849;DHT22;38714;53.180;5.812;2023-07-13T15:39:42;20.90;99.90
52849;DHT22;38714;53.180;5.812;2023-07-13T15:42:21;20.90;99.90
52849;DHT22;38714;53.180;5.812;2023-07-13T15:44:47;21.00;99.90
52849;DHT22;38714;53.180;5.812;2023-07-13T15:47:14;21.00;99.90
52849;DHT22;38714;53.180;5.812;2023-07-13T15:49:40;21.10;99.90
52849;DHT22;38714;53.180;5.812;2023-07-13T15:52:22;21.20;99.90
52849;DHT22;38714;53.180;5.812;2023-07-13T15:54:48;21.20;99.90
52849;DHT22;38714;53.180;5.812;2023-07-13T15:57:14;21.20;99.90
52849;DHT22;38714;53.180;5.812;2023-07-13T15:59:41;21.10;99.90
52849;DHT22;38714;53.180;5.812;2023-07-13T16:02:19;21.10;99.90
52849;DHT22;38714;53.180;5.812;2023-07-13T16:04:46;21.00;99.90
52849;DHT22;38714;53.180;5.812;2023-07-13T16:07:13;21.00;99.90
52849;DHT22;38714;53.180;5.812;2023-07-13T16:09:40;21.00;99.90
52849;DHT22;38714;53.180;5.812;2023-07-13T16:12:11;21.00;99.90
52849;DHT22;38714;53.180;5.812;2023-07-13T16:14:38;21.10;99.90
52849;DHT22;38714;53.180;5.812;2023-07-13T16:17:05;21.20;99.90
52849;DHT22;38714;53.180;5.812;2023-07-13T16:19:32;21.30;99.90
52849;DHT22;38714;53.180;5.812;2023-07-13T16:21:59;21.40;99.90
52849;DHT22;38714;53.180;5.812;2023-07-13T16:24:26;21.40;99.90
52849;DHT22;38714;53.180;5.812;2023-07-13T16:26:53;21.40;99.90